7W4 weather

Lake Anna Airport
Bumpass, Virginia, United States

Public forecast

Using degrees Fahrenheit for public forecast. Weather courtesy of forecast.io.

METAR (pilot weather report)

Closest report is Louisa County Airport/Freeman Field, 10.9 nm (20.3 km) WNW. Retrieved 2019/09/23 16:35 UTC (18 minutes ago):

KLKU 231635Z AUTO 26007KT 210V300 10SM CLR 31/15 A3000 RMK AO2 T03060149

TAF (pilot weather forecast)

Closest forecast is Richmond International Airport, 34.3 nm (63.5 km) SE. Retrieved 2019/09/23 12:36 UTC (4 hours ago):

TAF COR KRIC 231633Z 2312/2412 22007KT P6SM SCT060 FM240300 24006KT P6SM BKN070 FM240600 30006KT P6SM BKN060 FM240900 34009KT P6SM SCT150